Accueil
METAR-TAF:

METAR-TAF

Aéroports :

Aéroport de Sudbury

Sudbury, Ontario, Canada

latitude: 46-37N, longitude: 080-48W, altitude: 348 m

Observation

Le bulletin a été fait il y a 38 minutes, à 04:00 UTC
Vent 8 kt de est/nord-est
Température 6°C
Humidité 81%
Pression 1017 hPa
Visibilité: 24.1 km
Ciel clair

METAR: CYSB 280400Z 06008KT 15SM SKC 06/03 A3004 RMK SLP185

Heure: 00:38 (04:38 UTC)

Prévision

Le bulletin a été fait il y a 3 heures et 0 minutes, à 01:38 UTC
Prévision valable du 28 à 02 UTC au 28 à 14 UTC
Vent 8 kt de nord-est
Visibilité: 10 km
Ciel clair
Probabilité 30%
du 28 à 08 UTC au 28 à 13 UTC
Visibilité: 3.2 km
brume

TAF: CYSB 280138Z 2802/2814 05008KT P6SM SKC PROB30 2808/2813 2SM BR RMK NXT FCST BY 280800Z

Observations et prévisions météorologiques de plus de 4000 aéroports (messages METAR et TAF).

Les stations disponibles sont représentées par des disques jaunes et rouges sur la carte.

Passer la souris dessus pour voir le nom de la station.

Cliquer dessus pour voir les observations et prévisions météorologiques.

Pour changer de carte: cliquez sur les boutons verts avec une croix noire pour zoomer, sur le bouton vert avec un tiret pour effectuer un zoom arrière, ou sur les flèches vertes pour les cartes adjacentes.


METAR-TAF: